Time;durP1;ratioP1;P1;durP2;ratioP2;P2;SDS_P1;SDS_P2;PMS_P1;PMS_P2;Temp;Humidity;BMP_temperature;BMP_pressure;BME280_temperature;BME280_humidity;BME280_pressure;Samples;Min_cycle;Max_cycle;Signal;HPM_P1;HPM_P2
2021/12/05 00:22:25;;;;;;;8.30;2.97;;;5.70;79.70;;;;;;5036446;28;20289;-83
2021/12/05 00:24:55;;;;;;;9.48;3.10;;;5.70;79.60;;;;;;5045210;28;20190;-84
2021/12/05 00:27:27;;;;;;;10.88;2.65;;;5.70;79.80;;;;;;5047368;28;20241;-84
2021/12/05 00:44:28;;;;;;;35.63;3.75;;;5.70;80.40;;;;;;5028833;28;20185;-83
2021/12/05 01:07:26;;;;;;;18.33;2.97;;;6.10;80.00;;;;;;5023251;28;20171;-84
2021/12/05 01:12:50;;;;;;;9.90;2.45;;;6.00;80.00;;;;;;5023282;28;20200;-83
2021/12/05 01:15:21;;;;;;;12.48;2.35;;;5.90;79.60;;;;;;5017014;28;20570;-83
2021/12/05 01:18:09;;;;;;;9.38;2.95;;;6.10;79.80;;;;;;5035380;28;20592;-83
2021/12/05 01:20:42;;;;;;;8.52;2.38;;;6.10;79.50;;;;;;5028143;28;20183;-84
2021/12/05 01:23:21;;;;;;;11.75;2.05;;;5.90;79.40;;;;;;5015358;28;20206;-83
2021/12/05 01:26:09;;;;;;;6.15;2.13;;;6.10;79.80;;;;;;5031530;28;20194;-83
2021/12/05 01:31:50;;;;;;;10.85;2.88;;;6.30;79.50;;;;;;5034047;28;20181;-83
2021/12/05 01:47:55;;;;;;;5.00;1.75;;;6.40;79.20;;;;;;5028595;28;20234;-83
2021/12/05 02:36:47;;;;;;;5.30;2.65;;;6.00;80.80;;;;;;5037896;28;20178;-83
2021/12/05 02:41:40;;;;;;;3.88;2.40;;;6.20;81.10;;;;;;5025048;28;20265;-83
2021/12/05 02:46:47;;;;;;;6.25;2.80;;;6.40;81.30;;;;;;5026833;28;20178;-83
2021/12/05 02:49:15;;;;;;;5.88;2.40;;;6.10;80.60;;;;;;5039931;28;20256;-83
2021/12/05 02:51:42;;;;;;;4.63;2.78;;;6.00;81.00;;;;;;5030894;28;20178;-83
2021/12/05 02:54:16;;;;;;;5.93;2.72;;;5.90;81.50;;;;;;5033736;28;20258;-83
2021/12/05 02:56:43;;;;;;;4.90;2.60;;;6.00;81.80;;;;;;5042393;28;20179;-83
2021/12/05 02:59:49;;;;;;;5.97;2.97;;;6.10;81.80;;;;;;5041884;28;20174;-84
2021/12/05 03:02:08;;;;;;;8.68;2.65;;;6.10;81.40;;;;;;5034755;28;20202;-82
2021/12/05 03:04:41;;;;;;;4.60;2.78;;;6.00;81.60;;;;;;5031865;28;20214;-83
2021/12/05 03:07:09;;;;;;;7.15;3.50;;;5.90;82.00;;;;;;5021700;28;20265;-83
2021/12/05 03:09:37;;;;;;;4.30;2.90;;;6.00;82.10;;;;;;5021309;28;20182;-83
2021/12/05 03:12:04;;;;;;;10.30;3.33;;;6.10;82.10;;;;;;5024313;28;20182;-83
2021/12/05 03:14:30;;;;;;;10.63;3.38;;;6.00;81.60;;;;;;5019044;28;20305;-83
2021/12/05 03:16:56;;;;;;;9.70;3.27;;;6.10;81.90;;;;;;5038172;28;20209;-83
2021/12/05 03:19:22;;;;;;;7.38;3.25;;;6.30;82.10;;;;;;5031333;28;20429;-83
2021/12/05 03:21:50;;;;;;;5.97;3.25;;;6.00;81.80;;;;;;5027403;28;20229;-83
2021/12/05 03:24:21;;;;;;;10.63;3.80;;;5.90;82.70;;;;;;5032442;28;20692;-83
2021/12/05 03:26:49;;;;;;;7.10;3.33;;;6.10;83.30;;;;;;5038103;28;20185;-83
2021/12/05 03:29:17;;;;;;;4.90;3.35;;;6.20;83.00;;;;;;5031605;28;20182;-82
2021/12/05 03:31:44;;;;;;;10.23;4.30;;;6.10;83.00;;;;;;5037141;28;20205;-83
2021/12/05 03:34:13;;;;;;;10.77;3.17;;;6.30;83.20;;;;;;5024446;28;20193;-82
2021/12/05 03:36:42;;;;;;;4.40;3.13;;;6.30;83.20;;;;;;5039437;28;20182;-83
2021/12/05 03:39:09;;;;;;;10.43;2.80;;;6.10;83.00;;;;;;5035950;28;20171;-83
2021/12/05 03:41:36;;;;;;;5.32;3.97;;;6.30;83.20;;;;;;5027901;28;20202;-82
2021/12/05 03:44:03;;;;;;;3.78;3.10;;;6.20;82.80;;;;;;5035117;28;20193;-84
2021/12/05 03:46:30;;;;;;;6.80;3.17;;;5.90;82.80;;;;;;5035240;28;20229;-82
2021/12/05 03:48:59;;;;;;;3.88;2.80;;;6.00;83.10;;;;;;5040398;28;20180;-83
2021/12/05 03:51:27;;;;;;;4.32;3.00;;;6.10;83.20;;;;;;5031409;28;20680;-83
2021/12/05 03:53:53;;;;;;;6.15;3.70;;;5.80;83.40;;;;;;5025603;28;20234;-83
2021/12/05 03:56:21;;;;;;;6.47;3.00;;;6.00;83.90;;;;;;5016025;28;20190;-83
2021/12/05 03:58:48;;;;;;;4.07;2.78;;;6.00;83.70;;;;;;5030518;28;20182;-82
2021/12/05 04:01:14;;;;;;;6.22;3.22;;;5.90;83.90;;;;;;5021014;28;20185;-83
2021/12/05 04:03:43;;;;;;;7.43;3.38;;;5.80;83.90;;;;;;5032959;28;20661;-82
2021/12/05 04:06:11;;;;;;;6.30;3.95;;;5.90;84.10;;;;;;5013897;28;20183;-83
2021/12/05 04:08:39;;;;;;;4.03;3.08;;;6.00;84.00;;;;;;5013992;28;20206;-83
2021/12/05 04:11:10;;;;;;;5.43;3.17;;;5.80;83.80;;;;;;5013849;28;20183;-83
2021/12/05 04:13:36;;;;;;;5.22;2.67;;;5.70;84.20;;;;;;5028934;28;20174;-83
2021/12/05 04:16:04;;;;;;;7.73;3.03;;;5.40;84.80;;;;;;5030361;28;20189;-83
2021/12/05 04:18:30;;;;;;;5.50;2.80;;;5.40;85.70;;;;;;5019593;28;20178;-82
2021/12/05 04:20:56;;;;;;;3.20;2.40;;;5.60;86.20;;;;;;5023607;28;20200;-83
2021/12/05 04:23:22;;;;;;;3.67;3.00;;;5.60;86.00;;;;;;5019727;28;20487;-83
2021/12/05 04:25:51;;;;;;;8.53;2.97;;;5.60;85.80;;;;;;5035926;28;20424;-82
2021/12/05 04:28:18;;;;;;;6.43;2.80;;;5.30;86.00;;;;;;5031483;28;20436;-83
2021/12/05 04:30:44;;;;;;;9.35;2.80;;;5.30;86.40;;;;;;5032154;28;20178;-85
2021/12/05 04:33:10;;;;;;;4.40;3.10;;;5.40;86.70;;;;;;5025159;28;20514;-82
2021/12/05 04:35:36;;;;;;;5.90;2.90;;;5.40;86.80;;;;;;5019519;28;20460;-83
2021/12/05 04:38:03;;;;;;;6.03;3.25;;;5.60;87.00;;;;;;5032429;28;20429;-83
2021/12/05 04:40:29;;;;;;;13.35;3.10;;;5.30;87.10;;;;;;5023880;28;20174;-83
2021/12/05 04:42:55;;;;;;;3.75;2.53;;;5.50;87.40;;;;;;5035099;28;20233;-83
2021/12/05 04:45:24;;;;;;;5.30;3.87;;;5.60;87.50;;;;;;5019660;28;20194;-82
2021/12/05 04:47:51;;;;;;;10.43;4.65;;;5.80;87.50;;;;;;5033301;28;20932;-83
2021/12/05 04:50:18;;;;;;;9.02;3.60;;;5.60;87.20;;;;;;5028433;28;20680;-83
2021/12/05 04:52:45;;;;;;;6.03;3.80;;;5.60;87.20;;;;;;5021021;28;20595;-82
2021/12/05 04:55:12;;;;;;;10.13;4.05;;;5.50;87.60;;;;;;5036360;28;20209;-83
2021/12/05 04:57:40;;;;;;;7.95;4.13;;;5.60;87.70;;;;;;5037688;28;20178;-83
2021/12/05 05:00:13;;;;;;;6.38;4.13;;;5.60;87.80;;;;;;5019520;28;20203;-82
2021/12/05 05:02:40;;;;;;;8.50;5.22;;;5.90;88.00;;;;;;5031014;28;20213;-83
2021/12/05 05:05:08;;;;;;;7.60;4.63;;;5.80;87.60;;;;;;5032237;28;20558;-82
2021/12/05 05:07:34;;;;;;;6.82;4.45;;;5.60;87.50;;;;;;5037341;28;20175;-83
2021/12/05 05:10:05;;;;;;;8.70;4.90;;;5.60;87.70;;;;;;5034880;28;20220;-82
2021/12/05 05:12:31;;;;;;;8.80;4.82;;;5.50;87.80;;;;;;5040021;28;20179;-83
2021/12/05 05:14:57;;;;;;;9.20;5.77;;;5.80;88.00;;;;;;5043040;28;20221;-82
2021/12/05 05:17:24;;;;;;;9.90;4.43;;;5.90;88.00;;;;;;5043774;28;20171;-83
2021/12/05 05:19:54;;;;;;;13.93;5.60;;;5.90;88.00;;;;;;5047717;28;20235;-83
2021/12/05 05:22:37;;;;;;;12.98;6.07;;;6.00;87.70;;;;;;5043557;28;20205;-82
2021/12/05 05:41:46;;;;;;;8.15;6.18;;;6.10;86.80;;;;;;5044827;28;20197;-83
2021/12/05 05:51:48;;;;;;;9.80;5.63;;;6.10;86.70;;;;;;5049491;28;20173;-82
2021/12/05 05:54:14;;;;;;;8.20;5.43;;;6.00;86.30;;;;;;5043250;28;20203;-82
2021/12/05 05:56:43;;;;;;;7.68;5.57;;;6.20;86.40;;;;;;5034467;28;20943;-83
2021/12/05 05:59:19;;;;;;;7.65;5.18;;;6.00;86.40;;;;;;5040971;28;20214;-84
2021/12/05 06:04:17;;;;;;;8.63;5.40;;;6.30;86.30;;;;;;5049039;28;20198;-82
2021/12/05 06:06:43;;;;;;;9.50;5.57;;;6.20;86.00;;;;;;5046903;28;20178;-83
2021/12/05 06:09:10;;;;;;;13.23;5.70;;;6.30;86.10;;;;;;5044256;28;20193;-82
2021/12/05 06:11:36;;;;;;;5.97;4.97;;;6.20;85.90;;;;;;5044789;28;20178;-82
2021/12/05 06:14:03;;;;;;;6.90;4.72;;;6.20;86.10;;;;;;5054046;28;20207;-82
2021/12/05 06:16:30;;;;;;;8.20;4.95;;;6.20;86.20;;;;;;5045193;28;20189;-83
2021/12/05 06:18:56;;;;;;;6.65;4.90;;;6.30;86.40;;;;;;5035944;28;20241;-83
2021/12/05 06:21:22;;;;;;;9.23;4.73;;;6.30;86.30;;;;;;5045890;28;20232;-82
2021/12/05 06:23:48;;;;;;;11.77;5.80;;;6.40;86.30;;;;;;5053945;28;20472;-83
2021/12/05 06:26:20;;;;;;;15.45;5.68;;;6.30;85.90;;;;;;5054060;28;20427;-83
2021/12/05 06:28:56;;;;;;;9.32;5.20;;;6.10;85.60;;;;;;5040502;28;20174;-83
2021/12/05 06:47:21;;;;;;;7.05;5.78;;;6.10;85.30;;;;;;5044727;28;20186;-83
2021/12/05 06:49:47;;;;;;;7.40;6.20;;;6.10;85.60;;;;;;5047271;28;20154;-83
2021/12/05 06:52:12;;;;;;;9.40;5.70;;;6.20;85.90;;;;;;5048982;28;20193;-83
2021/12/05 06:54:41;;;;;;;7.73;4.03;;;6.20;85.90;;;;;;5049008;28;20525;-82
2021/12/05 06:57:07;;;;;;;9.85;5.00;;;6.30;86.10;;;;;;5033342;28;20196;-82
2021/12/05 06:59:34;;;;;;;8.65;7.00;;;6.50;86.00;;;;;;5042868;28;20170;-82
2021/12/05 07:02:00;;;;;;;10.23;5.35;;;6.40;85.50;;;;;;5046275;28;20182;-82
2021/12/05 07:07:18;;;;;;;8.48;5.32;;;6.40;85.40;;;;;;5043627;28;20170;-82
2021/12/05 07:09:44;;;;;;;8.48;6.53;;;6.40;85.40;;;;;;5036189;28;20181;-83
2021/12/05 07:15:16;;;;;;;7.65;4.75;;;6.20;85.10;;;;;;5045503;28;20213;-85
2021/12/05 07:20:51;;;;;;;9.70;5.90;;;6.30;85.20;;;;;;5045738;28;20205;-84
2021/12/05 07:23:34;;;;;;;8.60;5.95;;;6.30;85.30;;;;;;5046407;28;20220;-84
2021/12/05 07:26:28;;;;;;;9.23;7.30;;;6.20;85.10;;;;;;5037797;28;20186;-84
2021/12/05 07:42:34;;;;;;;11.23;5.20;;;6.40;85.10;;;;;;5043857;28;20250;-84
2021/12/05 07:45:03;;;;;;;7.07;4.60;;;6.40;85.10;;;;;;5031270;28;20226;-85
2021/12/05 07:47:31;;;;;;;8.73;5.80;;;6.30;85.20;;;;;;5028073;28;20190;-85
2021/12/05 07:50:03;;;;;;;7.15;4.35;;;6.30;85.40;;;;;;5036211;28;20185;-85
2021/12/05 07:52:30;;;;;;;7.53;5.60;;;6.10;85.50;;;;;;5030649;28;20209;-84
2021/12/05 07:55:05;;;;;;;6.20;3.97;;;6.30;85.50;;;;;;5040224;28;20248;-85
2021/12/05 07:57:43;;;;;;;6.78;4.28;;;6.40;85.40;;;;;;5025677;28;20229;-84
2021/12/05 08:00:20;;;;;;;5.38;3.90;;;6.50;85.10;;;;;;5030577;28;20170;-85
2021/12/05 08:16:30;;;;;;;7.00;4.63;;;6.80;84.10;;;;;;5023887;28;20313;-81
2021/12/05 08:18:56;;;;;;;6.47;5.35;;;6.70;84.10;;;;;;5026267;28;20638;-81
2021/12/05 08:21:22;;;;;;;5.10;3.80;;;6.70;83.60;;;;;;5033592;28;20857;-83
2021/12/05 08:23:50;;;;;;;7.47;4.90;;;6.70;83.50;;;;;;5022276;28;20211;-82
2021/12/05 08:26:25;;;;;;;11.48;5.03;;;6.60;83.50;;;;;;5020044;28;20174;-82
2021/12/05 09:30:27;;;;;;;6.65;4.90;;;7.20;82.50;;;;;;5059507;28;20181;-81
2021/12/05 10:06:40;;;;;;;2.05;1.73;;;7.70;83.40;;;;;;5064967;28;20294;-83
2021/12/05 10:09:15;;;;;;;2.10;1.90;;;7.90;82.30;;;;;;5063551;28;20181;-82
2021/12/05 10:34:27;;;;;;;4.38;2.25;;;8.40;78.50;;;;;;5060992;28;20208;-82
2021/12/05 10:37:08;;;;;;;2.17;1.92;;;8.60;78.20;;;;;;5065878;28;20188;-83
2021/12/05 10:39:34;;;;;;;4.28;2.00;;;8.60;77.80;;;;;;5077601;28;20196;-82
2021/12/05 10:42:14;;;;;;;2.17;1.90;;;8.50;77.70;;;;;;5070573;28;20173;-81
2021/12/05 10:44:45;;;;;;;2.22;2.03;;;8.00;76.90;;;;;;5068686;28;20193;-83
2021/12/05 10:47:11;;;;;;;4.85;2.45;;;7.90;77.40;;;;;;5066887;28;20207;-84
2021/12/05 10:49:37;;;;;;;2.63;2.42;;;7.80;77.40;;;;;;5075324;28;20157;-83
2021/12/05 10:52:03;;;;;;;3.13;2.40;;;7.70;77.60;;;;;;5073922;28;20204;-83
2021/12/05 10:54:29;;;;;;;3.05;2.70;;;7.70;77.70;;;;;;5055803;28;20467;-83
2021/12/05 10:57:04;;;;;;;3.05;2.20;;;7.90;77.70;;;;;;5075532;28;20189;-84
2021/12/05 10:59:38;;;;;;;2.80;2.50;;;7.80;77.50;;;;;;5075187;28;20164;-83
2021/12/05 11:02:14;;;;;;;2.03;1.92;;;8.00;77.70;;;;;;5076243;28;20208;-83
2021/12/05 11:04:49;;;;;;;4.13;2.60;;;8.30;77.60;;;;;;5072875;28;20189;-82
2021/12/05 11:07:19;;;;;;;4.93;3.55;;;8.50;77.30;;;;;;5056883;28;20169;-83
2021/12/05 11:09:48;;;;;;;3.30;3.00;;;8.70;76.50;;;;;;5053549;28;20279;-82
2021/12/05 11:12:23;;;;;;;2.72;2.40;;;8.80;76.20;;;;;;5057774;28;20177;-82
2021/12/05 11:14:56;;;;;;;4.00;3.60;;;8.80;75.40;;;;;;5048984;28;20206;-81
2021/12/05 11:17:26;;;;;;;4.03;3.60;;;8.90;75.30;;;;;;5045888;28;20193;-81
2021/12/05 11:19:52;;;;;;;3.78;3.20;;;9.00;75.00;;;;;;5035508;28;21014;-81
2021/12/05 11:22:54;;;;;;;4.13;3.50;;;8.80;74.20;;;;;;5032771;28;20194;-80
2021/12/05 11:25:23;;;;;;;6.82;3.85;;;8.70;74.70;;;;;;5033819;28;20296;-80
2021/12/05 11:27:58;;;;;;;6.10;3.90;;;8.90;74.80;;;;;;5042606;28;20186;-77
2021/12/05 11:30:33;;;;;;;5.88;3.72;;;9.10;74.70;;;;;;5019293;28;20183;-80
2021/12/05 11:33:02;;;;;;;5.15;4.15;;;9.30;74.20;;;;;;5037058;28;20228;-79
2021/12/05 11:35:30;;;;;;;6.65;4.22;;;9.40;73.50;;;;;;5045848;28;20201;-79
2021/12/05 11:38:07;;;;;;;5.10;4.10;;;9.40;72.80;;;;;;5033225;28;20261;-80
2021/12/05 11:40:42;;;;;;;6.10;4.82;;;9.50;72.60;;;;;;5030824;28;20178;-79
2021/12/05 11:43:10;;;;;;;8.75;4.20;;;9.30;72.00;;;;;;5047369;28;20212;-79
2021/12/05 11:46:26;;;;;;;4.88;4.35;;;9.20;72.40;;;;;;5032667;28;20262;-79
2021/12/05 11:48:56;;;;;;;5.53;4.78;;;9.20;72.40;;;;;;5040243;28;20187;-79
2021/12/05 11:51:30;;;;;;;14.98;6.43;;;9.10;73.00;;;;;;5033173;28;20175;-79
2021/12/05 11:54:00;;;;;;;6.88;5.97;;;9.20;73.20;;;;;;5030980;28;20212;-80
2021/12/05 11:56:29;;;;;;;11.48;6.40;;;9.10;73.10;;;;;;5040941;28;20189;-81
2021/12/05 11:59:26;;;;;;;7.60;4.53;;;9.30;73.30;;;;;;5039453;28;20254;-80
2021/12/05 12:02:08;;;;;;;6.20;5.20;;;9.10;72.60;;;;;;5032621;28;20190;-81
2021/12/05 12:04:49;;;;;;;7.60;4.53;;;9.20;72.70;;;;;;5047538;28;20262;-81
2021/12/05 12:07:28;;;;;;;7.75;4.53;;;9.20;72.30;;;;;;5040848;28;20174;-80
2021/12/05 12:10:02;;;;;;;7.32;5.32;;;9.30;71.70;;;;;;5041414;28;20206;-82
2021/12/05 12:12:28;;;;;;;6.60;5.00;;;9.30;71.80;;;;;;5033991;28;20193;-82
2021/12/05 12:14:54;;;;;;;8.30;5.30;;;9.50;71.70;;;;;;5027589;28;20202;-81
2021/12/05 12:17:20;;;;;;;9.32;5.53;;;9.50;70.70;;;;;;5028160;28;20185;-81
2021/12/05 12:19:50;;;;;;;9.27;5.85;;;9.60;70.70;;;;;;5017413;28;20218;-82
2021/12/05 12:22:20;;;;;;;10.40;5.13;;;9.70;71.30;;;;;;5026080;28;20198;-81
2021/12/05 12:24:54;;;;;;;6.90;5.38;;;9.70;72.90;;;;;;5016903;28;20278;-81
2021/12/05 12:27:20;;;;;;;8.88;5.43;;;9.80;72.50;;;;;;5029035;28;20186;-82
2021/12/05 12:29:48;;;;;;;7.95;5.10;;;10.00;71.10;;;;;;5034910;28;20186;-83
2021/12/05 12:32:17;;;;;;;8.30;5.10;;;10.00;70.40;;;;;;5039278;28;20187;-82
2021/12/05 12:34:44;;;;;;;7.25;4.90;;;10.00;70.20;;;;;;5030070;28;20237;-83
2021/12/05 12:37:12;;;;;;;6.88;5.55;;;10.10;69.90;;;;;;5035354;28;20217;-82
2021/12/05 12:39:44;;;;;;;7.82;4.78;;;10.10;69.80;;;;;;5034282;28;20189;-81
2021/12/05 12:42:20;;;;;;;5.00;4.50;;;10.00;69.40;;;;;;5039791;28;20677;-82
2021/12/05 12:45:20;;;;;;;7.88;4.97;;;9.90;69.40;;;;;;5036806;28;20259;-82
2021/12/05 12:47:50;;;;;;;6.45;4.93;;;9.80;69.00;;;;;;5034513;28;20869;-81
2021/12/05 12:50:24;;;;;;;5.53;4.72;;;9.20;69.30;;;;;;5043456;28;20166;-83
2021/12/05 12:53:09;;;;;;;8.65;5.40;;;9.20;70.20;;;;;;5038949;28;20180;-82
2021/12/05 12:55:39;;;;;;;9.40;4.70;;;9.40;70.00;;;;;;5040220;28;20199;-80
2021/12/05 12:58:07;;;;;;;4.90;3.92;;;9.50;70.00;;;;;;5045755;28;20208;-81
2021/12/05 13:00:38;;;;;;;7.40;5.00;;;9.40;69.70;;;;;;5034968;28;20182;-83
2021/12/05 13:03:26;;;;;;;6.80;4.40;;;9.30;69.50;;;;;;5035711;28;20196;-81
2021/12/05 13:12:03;;;;;;;4.68;4.18;;;9.20;70.70;;;;;;5039418;28;20531;-83
2021/12/05 13:14:29;;;;;;;5.72;4.07;;;9.20;69.90;;;;;;5042271;28;20288;-83
2021/12/05 13:16:55;;;;;;;9.27;5.43;;;9.10;70.20;;;;;;5029002;28;20178;-81
2021/12/05 13:19:26;;;;;;;5.40;4.90;;;9.00;70.70;;;;;;5042218;28;20166;-81
2021/12/05 13:21:54;;;;;;;11.15;4.38;;;9.00;71.00;;;;;;5036428;28;20413;-82
2021/12/05 13:24:41;;;;;;;8.10;5.75;;;8.90;71.10;;;;;;5040965;28;20205;-83
2021/12/05 13:27:23;;;;;;;6.10;4.70;;;9.30;70.70;;;;;;5040498;28;20487;-82
2021/12/05 13:29:52;;;;;;;5.88;5.10;;;9.40;69.40;;;;;;5043618;28;20185;-81
2021/12/05 13:32:25;;;;;;;5.57;4.60;;;9.40;69.80;;;;;;5042900;28;20265;-81
2021/12/05 13:34:59;;;;;;;5.18;4.72;;;9.40;70.70;;;;;;5041281;28;20228;-83
2021/12/05 13:37:27;;;;;;;6.22;5.68;;;9.50;71.00;;;;;;5041457;28;20508;-81
2021/12/05 13:40:02;;;;;;;6.00;5.10;;;9.40;70.90;;;;;;5047688;28;20185;-82
2021/12/05 13:42:41;;;;;;;7.60;4.82;;;9.50;70.80;;;;;;5036367;28;20246;-82
2021/12/05 13:45:16;;;;;;;5.90;5.40;;;9.30;70.40;;;;;;5041194;28;20677;-81
2021/12/05 13:47:42;;;;;;;5.40;4.90;;;9.20;69.90;;;;;;5040974;28;20180;-80
2021/12/05 13:50:25;;;;;;;6.13;4.45;;;9.10;69.50;;;;;;5036871;28;20264;-79
2021/12/05 13:52:56;;;;;;;5.40;4.90;;;8.90;69.20;;;;;;5041736;28;20171;-80
2021/12/05 13:55:47;;;;;;;7.72;4.90;;;8.60;69.60;;;;;;5048612;28;20205;-80
2021/12/05 14:01:08;;;;;;;5.35;4.85;;;8.40;71.00;;;;;;5042348;28;20185;-80
2021/12/05 14:03:53;;;;;;;7.38;5.55;;;8.30;71.70;;;;;;5036227;28;20201;-80
2021/12/05 14:06:33;;;;;;;6.95;5.53;;;8.30;72.20;;;;;;5044592;28;20198;-79
2021/12/05 14:09:11;;;;;;;7.32;5.40;;;8.00;72.50;;;;;;5037746;28;20252;-80
2021/12/05 14:11:43;;;;;;;6.80;6.20;;;7.80;73.40;;;;;;5045545;28;20301;-80
2021/12/05 14:14:14;;;;;;;8.20;5.38;;;7.80;73.90;;;;;;5046001;28;20285;-81
2021/12/05 14:16:45;;;;;;;10.48;6.32;;;7.90;73.90;;;;;;5028878;28;20248;-79
2021/12/05 14:19:19;;;;;;;9.85;5.15;;;8.00;73.70;;;;;;5042913;28;20181;-80
2021/12/05 14:21:48;;;;;;;8.05;6.70;;;8.20;73.60;;;;;;5036080;28;20240;-80
2021/12/05 14:24:16;;;;;;;7.30;5.85;;;8.30;73.20;;;;;;5022562;28;20686;-80
2021/12/05 14:26:42;;;;;;;9.98;6.45;;;8.20;72.50;;;;;;5024118;28;20284;-79
2021/12/05 14:29:18;;;;;;;10.52;6.25;;;7.90;72.60;;;;;;5018140;28;20186;-80
2021/12/05 14:32:02;;;;;;;6.55;5.72;;;7.90;73.10;;;;;;5018020;28;20205;-80
2021/12/05 14:34:28;;;;;;;8.15;6.53;;;7.90;73.30;;;;;;5016885;28;20214;-79
2021/12/05 14:37:05;;;;;;;8.82;5.63;;;8.10;73.40;;;;;;5019823;28;20183;-80
2021/12/05 14:39:41;;;;;;;8.43;6.53;;;8.20;73.20;;;;;;5017215;28;20182;-80
2021/12/05 14:42:16;;;;;;;8.18;6.05;;;8.30;72.90;;;;;;5015978;28;20557;-79
2021/12/05 14:44:44;;;;;;;9.40;6.97;;;8.40;72.50;;;;;;5016176;28;20229;-80
2021/12/05 14:47:12;;;;;;;7.40;5.63;;;8.30;72.50;;;;;;5017341;28;20202;-81
2021/12/05 14:49:44;;;;;;;11.13;7.03;;;8.40;72.30;;;;;;5019802;28;20253;-82
2021/12/05 14:52:14;;;;;;;8.50;5.85;;;8.50;72.40;;;;;;5017906;28;20182;-81
2021/12/05 14:54:41;;;;;;;7.32;6.63;;;8.40;72.20;;;;;;5022573;28;20271;-80
2021/12/05 14:57:12;;;;;;;9.90;7.20;;;8.50;72.50;;;;;;5018492;28;20181;-80
2021/12/05 14:59:39;;;;;;;10.82;6.28;;;8.60;72.30;;;;;;5029824;28;20677;-80
2021/12/05 15:02:06;;;;;;;11.60;6.75;;;8.50;72.30;;;;;;5023680;28;20602;-80
2021/12/05 15:04:38;;;;;;;8.52;6.00;;;8.40;72.10;;;;;;5029558;28;20198;-81
2021/12/05 15:07:05;;;;;;;13.00;6.72;;;8.40;72.10;;;;;;5050867;28;20208;-79
2021/12/05 15:09:36;;;;;;;9.07;7.40;;;8.40;72.10;;;;;;5040625;28;20281;-82
2021/12/05 15:12:07;;;;;;;9.05;6.00;;;8.40;72.20;;;;;;5021930;28;20178;-81
2021/12/05 15:14:34;;;;;;;11.38;8.05;;;8.40;72.40;;;;;;5020168;28;20744;-80
2021/12/05 15:17:07;;;;;;;11.48;6.45;;;8.50;72.50;;;;;;5021288;28;20189;-81
2021/12/05 15:19:34;;;;;;;10.50;7.40;;;8.50;72.20;;;;;;5026407;28;20271;-82
2021/12/05 15:22:03;;;;;;;11.27;8.27;;;8.50;72.00;;;;;;5017658;28;20595;-81
2021/12/05 15:24:30;;;;;;;10.65;7.28;;;8.40;71.80;;;;;;5034776;28;20213;-81
2021/12/05 15:27:01;;;;;;;10.45;6.65;;;8.50;72.10;;;;;;5036750;28;20499;-81
2021/12/05 15:29:28;;;;;;;9.13;6.88;;;8.50;72.00;;;;;;5021558;28;20268;-82
2021/12/05 15:31:56;;;;;;;16.10;8.30;;;8.40;72.00;;;;;;5025896;28;20186;-83
2021/12/05 15:34:36;;;;;;;12.15;8.25;;;8.30;72.30;;;;;;5020637;28;20281;-82
2021/12/05 15:37:11;;;;;;;9.30;6.80;;;8.30;72.50;;;;;;5023066;28;20205;-82
2021/12/05 15:39:42;;;;;;;14.55;9.00;;;8.30;72.60;;;;;;5029146;28;20182;-82
2021/12/05 15:42:16;;;;;;;18.48;8.05;;;8.20;72.70;;;;;;5022885;28;20221;-82
2021/12/05 15:44:43;;;;;;;13.75;7.93;;;8.20;73.00;;;;;;5046514;28;20205;-83
2021/12/05 15:47:15;;;;;;;10.48;6.93;;;8.20;73.20;;;;;;5039334;28;20247;-82
2021/12/05 15:49:48;;;;;;;11.60;6.72;;;8.30;73.60;;;;;;5048324;28;20246;-83
2021/12/05 15:52:15;;;;;;;12.82;8.85;;;8.20;73.70;;;;;;5029535;28;20209;-82
2021/12/05 15:54:43;;;;;;;12.60;9.13;;;8.30;74.10;;;;;;5030534;28;20253;-82
2021/12/05 15:57:15;;;;;;;16.60;9.85;;;8.30;74.50;;;;;;5029376;28;20178;-82
2021/12/05 15:59:46;;;;;;;18.90;11.63;;;8.30;74.70;;;;;;5037449;28;20189;-82
2021/12/05 16:02:16;;;;;;;17.75;11.70;;;8.30;75.00;;;;;;5034277;28;20670;-82
2021/12/05 16:04:43;;;;;;;18.17;12.13;;;8.20;75.00;;;;;;5028797;28;20547;-80
2021/12/05 16:07:10;;;;;;;28.33;13.77;;;8.20;75.20;;;;;;5024215;28;20201;-80
2021/12/05 16:09:39;;;;;;;20.90;13.05;;;8.20;75.30;;;;;;5020416;28;20178;-82
2021/12/05 16:12:20;;;;;;;28.67;17.67;;;8.00;75.50;;;;;;5030720;28;20186;-82
2021/12/05 16:14:56;;;;;;;33.65;16.45;;;7.80;76.00;;;;;;5029368;28;20213;-80
2021/12/05 16:17:26;;;;;;;20.83;11.77;;;7.70;76.70;;;;;;5037180;28;20188;-82
2021/12/05 16:20:40;;;;;;;20.50;11.70;;;7.50;77.30;;;;;;5020527;28;20243;-81
2021/12/05 16:23:20;;;;;;;26.17;14.02;;;7.40;77.80;;;;;;5027747;28;20275;-84
2021/12/05 16:25:58;;;;;;;32.10;16.88;;;7.40;78.40;;;;;;5011326;28;20265;-83
2021/12/05 16:28:32;;;;;;;24.35;13.45;;;7.50;78.70;;;;;;5017339;28;20175;-82
2021/12/05 16:31:19;;;;;;;25.48;14.57;;;7.40;78.60;;;;;;5023375;28;20209;-81
2021/12/05 16:33:53;;;;;;;22.33;12.93;;;7.40;78.60;;;;;;5032501;28;20198;-81
2021/12/05 16:36:19;;;;;;;27.02;13.65;;;7.30;78.90;;;;;;5027031;28;20300;-80
2021/12/05 16:38:51;;;;;;;27.23;14.90;;;7.10;79.40;;;;;;5015526;28;20194;-80
2021/12/05 16:41:30;;;;;;;39.03;17.00;;;7.20;79.60;;;;;;5020943;28;20182;-79
2021/12/05 16:44:09;;;;;;;17.45;10.55;;;7.30;79.50;;;;;;5030173;28;20210;-80
2021/12/05 16:46:38;;;;;;;21.40;11.68;;;7.00;79.50;;;;;;5013600;28;20630;-80
2021/12/05 16:49:07;;;;;;;18.67;11.95;;;6.80;80.00;;;;;;5024695;28;20212;-79
2021/12/05 16:51:44;;;;;;;22.58;13.38;;;6.80;80.40;;;;;;5035745;28;20213;-79
2021/12/05 16:54:23;;;;;;;16.92;11.45;;;6.80;80.50;;;;;;5031781;28;20280;-81
2021/12/05 16:56:54;;;;;;;21.10;11.27;;;6.80;80.40;;;;;;5024924;28;20190;-81
2021/12/05 16:59:25;;;;;;;19.73;12.07;;;6.80;80.90;;;;;;5020927;28;20209;-81
2021/12/05 17:02:07;;;;;;;21.45;14.57;;;7.00;81.00;;;;;;5031372;28;20208;-80
2021/12/05 17:05:03;;;;;;;26.73;15.55;;;7.00;80.50;;;;;;5038808;28;20203;-81
2021/12/05 17:07:49;;;;;;;24.30;13.88;;;7.00;80.30;;;;;;5020888;28;20273;-81
2021/12/05 17:10:21;;;;;;;22.08;12.57;;;7.10;80.10;;;;;;5034670;28;20313;-81
2021/12/05 17:13:06;;;;;;;23.23;14.07;;;7.10;79.70;;;;;;5034379;28;20232;-81
2021/12/05 17:15:34;;;;;;;25.42;14.13;;;7.10;79.60;;;;;;5025235;28;20210;-81
2021/12/05 17:18:04;;;;;;;23.10;13.75;;;7.00;79.70;;;;;;5020147;28;20214;-81
2021/12/05 17:20:34;;;;;;;23.83;13.15;;;7.10;80.00;;;;;;5020693;28;20241;-81
2021/12/05 17:23:09;;;;;;;23.88;13.30;;;7.20;79.70;;;;;;5020865;28;20261;-81
2021/12/05 17:25:39;;;;;;;20.05;12.35;;;7.40;79.60;;;;;;5028527;28;20545;-81
2021/12/05 17:28:08;;;;;;;23.00;13.80;;;7.50;79.50;;;;;;5021975;28;20229;-81
2021/12/05 17:30:34;;;;;;;22.00;13.07;;;7.60;78.90;;;;;;5025455;28;20177;-80
2021/12/05 17:33:00;;;;;;;25.30;15.25;;;7.50;78.40;;;;;;5020140;28;20194;-80
2021/12/05 17:35:28;;;;;;;33.40;17.90;;;7.60;78.40;;;;;;5021696;28;20637;-81
2021/12/05 17:37:55;;;;;;;29.00;15.57;;;7.60;78.30;;;;;;5025079;28;20434;-80
2021/12/05 17:40:21;;;;;;;24.13;15.13;;;7.60;78.20;;;;;;5025651;28;20187;-81
2021/12/05 17:42:47;;;;;;;21.17;13.65;;;7.70;78.20;;;;;;5028425;28;20204;-81
2021/12/05 17:45:15;;;;;;;25.77;15.77;;;7.60;78.00;;;;;;5037521;28;20238;-81
2021/12/05 17:47:42;;;;;;;26.45;15.45;;;7.50;78.20;;;;;;5051328;28;20557;-81
2021/12/05 17:50:12;;;;;;;29.05;19.45;;;7.60;78.40;;;;;;5034814;28;20182;-80
2021/12/05 17:52:38;;;;;;;24.88;13.95;;;7.50;78.20;;;;;;5032931;28;20202;-81
2021/12/05 17:55:18;;;;;;;22.70;13.17;;;7.40;78.20;;;;;;5027892;28;20202;-81
2021/12/05 17:58:09;;;;;;;21.73;14.32;;;7.10;78.70;;;;;;5022174;28;20183;-81
2021/12/05 18:00:56;;;;;;;27.13;15.50;;;7.00;79.20;;;;;;5025074;28;20178;-82
2021/12/05 18:03:22;;;;;;;21.38;14.02;;;7.30;79.70;;;;;;5019592;28;20194;-82
2021/12/05 18:05:49;;;;;;;24.23;15.30;;;7.40;79.50;;;;;;5027816;28;20216;-83
2021/12/05 18:08:20;;;;;;;28.17;15.05;;;7.40;79.20;;;;;;5019716;28;20185;-82
2021/12/05 18:10:52;;;;;;;23.20;14.65;;;7.50;79.10;;;;;;5021140;28;20551;-82
2021/12/05 18:13:22;;;;;;;28.77;17.17;;;7.60;78.80;;;;;;5027198;28;20756;-81
2021/12/05 18:15:57;;;;;;;22.75;14.05;;;7.60;78.50;;;;;;5022459;28;20198;-81
2021/12/05 18:18:25;;;;;;;23.65;14.25;;;7.60;78.30;;;;;;5027476;28;20194;-81
2021/12/05 18:20:51;;;;;;;23.60;14.60;;;7.60;78.00;;;;;;5028803;28;20326;-81
2021/12/05 18:23:20;;;;;;;23.37;14.67;;;7.50;78.10;;;;;;5027431;28;20232;-82
2021/12/05 18:25:46;;;;;;;22.85;13.10;;;7.60;78.10;;;;;;5019339;28;20445;-84
2021/12/05 18:28:13;;;;;;;20.20;13.00;;;7.50;78.00;;;;;;5024857;28;20589;-82
2021/12/05 18:30:39;;;;;;;27.35;14.30;;;7.50;78.00;;;;;;5021323;28;20209;-82
2021/12/05 18:33:08;;;;;;;23.35;14.57;;;7.50;78.10;;;;;;5029580;28;20225;-81
2021/12/05 18:35:37;;;;;;;24.05;14.40;;;7.60;78.20;;;;;;5020830;28;20214;-82
2021/12/05 18:38:09;;;;;;;18.75;12.38;;;7.60;78.40;;;;;;5030060;28;20182;-83
2021/12/05 18:40:41;;;;;;;25.33;14.23;;;7.60;78.40;;;;;;5035220;28;20258;-82
2021/12/05 18:43:08;;;;;;;21.88;13.85;;;7.60;78.00;;;;;;5018439;28;20203;-81
2021/12/05 18:45:38;;;;;;;27.50;14.63;;;7.60;77.90;;;;;;5023367;28;20198;-82